Liberty, MO

9:33 PM CDT on April 26, 2017 (GMT -0500)
District Administration Center | | Change Station

Elev 874 ft 39.24 °N, 94.45 °W | Updated 0 second ago

Overcast
Overcast
45.0 °F
Feels Like 45 °F
N
0.0
Wind Variable Wind from South
Gusts 7.0 mph

Today
High -- | Low -- °F
--% Chance of Precip.
Yesterday
High -- | Low -- °F
Precip. -- in
Pressure 29.65 in
Visibility 10.0 miles
Clouds Overcast 2900 ft
Windchill 45 °F
Dew Point Not available.
Humidity Not available.
Rainfall 0.17 in
Snow Depth Not available.
6:25 AM 8:06 PM
New Moon, 1% visible
METAR KGPH 270235Z AUTO 33008KT 10SM OVC029 08/02 A2965 RMK AO2
Pressure 29.65 in
Visibility 10.0 miles
Clouds Overcast 2900 ft
Windchill 45 °F
Dew Point Not available.
Humidity Not available.
Rainfall 0.17 in
Snow Depth Not available.
6:25 AM 8:06 PM
New Moon, 1% visible
METAR KGPH 270235Z AUTO 33008KT 10SM OVC029 08/02 A2965 RMK AO2

Get Severe Weather Alerts

Thanks for signing up!

Be on the lookout for a verification email in your inbox.

You'll start receiving the daily forecast at 8 AM.

×

10-Day Weather Forecast

Almanac

Astronomy

Apr. 26, 2017 Rise Set
Actual Time
Civil Twilight
Nautical Twilight
Astronomical Twilight
Moon
Length of Visible Light
Length of Day
Tomorrow will be .
, % of the Moon is Illuminated

Today's Extremes

State Highs State Lows

Community

WunderPhotos

WunderBlog® & News

Nearby

Air Quality

  Air Quality AQ Index Pollutant
Not available.

Snow Depth

Station Depth Elevation

Earthquake Activity

City Distance Mag. Time & Date
Minimum magnitude displayed is 2.5.

Coastal Water Temperatures

Place Temperature

Stations

Nearby Weather Stations

Station Location Temp. Windchill Dew Point Humidity Wind Precip. Elev Updated Type
                   

Watches & Warnings

There are currently no watches in effect.